首页
METAR-TAF:

METAR-TAF

机场 :

喀土穆国际机场

喀土穆, 苏丹共和国

纬度: 15-36N, 经度: 032-33E, 海拔: 382米

当前天气观测

该预报发布于28分钟前的08:00 UTC
风速13节,风向南转西南
温度 30°C
湿度 52%
气压 1012 hPa
能见度10公里或以上
1500米以下无云,无积雨云

METAR: HSSS 200800Z 21013KT CAVOK 30/19 Q1012 NOSIG

时间: 11:28 (08:28 UTC)

预报

该预报发布于3小时和28分钟前的05:00 UTC
预报有效从20日的 06点(UTC)到 21日的 12点(UTC)
风速8节,风向,有时为18节阵风
能见度10公里或以上
少量云层高于4000英尺
散云层高于14000英尺
短暂存在
从 20日的 15点(UTC)到 20日的 18点(UTC)
能見度: 6000
少量云层高于4500英尺, 积雨云.
雷暴, 雨

TAF: HSSS 200500Z 2006/2112 17008G18KT 9999 FEW040 SCT140 TEMPO 2015/2018 6000 TSRA FEW045CB

超过4000个机场的气象观测和天气预报(METAR&TAF报告)。

可查询的气象台以黄色和红色小点在地图上表示。

将鼠标移到小点上方,可查看气象台名称。

然后点击查看天气观测和预报。

如需切换地图:点击带黑十字的绿色按钮放大地图;点击带横线的绿色按钮缩小地图;或者点击绿色箭头查看邻近地区的地图。


METAR-TAF: